createdAt,value
2024-04-17T00:02:05.831Z,68.66
2024-04-17T00:04:32.744Z,68.80
2024-04-17T00:06:59.486Z,68.56
2024-04-17T00:09:26.253Z,68.65
2024-04-17T00:11:52.993Z,68.75
2024-04-17T00:14:19.768Z,68.37
2024-04-17T00:16:46.515Z,68.29
2024-04-17T00:19:13.518Z,68.32
2024-04-17T00:21:40.211Z,68.26
2024-04-17T00:24:07.034Z,68.41
2024-04-17T00:26:33.717Z,68.73
2024-04-17T00:29:00.504Z,68.85
2024-04-17T00:31:27.233Z,69.22
2024-04-17T00:33:53.938Z,69.03
2024-04-17T00:36:20.594Z,68.72
2024-04-17T00:38:47.239Z,69.00
2024-04-17T00:41:13.916Z,69.40
2024-04-17T00:43:40.623Z,68.87
2024-04-17T00:46:12.268Z,69.33
2024-04-17T00:48:39.089Z,70.00
2024-04-17T00:51:06.137Z,70.42
2024-04-17T00:53:34.549Z,70.61
2024-04-17T00:56:01.963Z,71.34
2024-04-17T00:58:29.572Z,71.88
2024-04-17T01:00:56.515Z,72.23
2024-04-17T01:03:23.414Z,72.07
2024-04-17T01:05:50.172Z,71.99
2024-04-17T01:08:17.280Z,71.76
2024-04-17T01:10:44.132Z,71.99
2024-04-17T01:13:11.010Z,71.81
2024-04-17T01:15:37.952Z,71.51
2024-04-17T01:18:06.417Z,70.62
2024-04-17T01:20:33.518Z,70.98
2024-04-17T01:23:00.321Z,71.30
2024-04-17T01:25:27.115Z,71.08
2024-04-17T01:27:53.788Z,71.10
2024-04-17T01:30:20.430Z,71.26
2024-04-17T01:32:47.217Z,70.89
2024-04-17T01:35:14.096Z,70.73
2024-04-17T01:37:40.815Z,70.64
2024-04-17T01:40:08.042Z,70.47
2024-04-17T01:42:34.751Z,70.53
2024-04-17T01:45:01.414Z,69.85
2024-04-17T01:47:28.218Z,69.97
2024-04-17T01:49:54.965Z,70.06
2024-04-17T01:52:21.709Z,69.97
2024-04-17T01:54:48.410Z,70.44
2024-04-17T01:57:15.036Z,71.25
2024-04-17T01:59:41.722Z,72.00
2024-04-17T02:02:09.361Z,72.83
2024-04-17T02:04:36.016Z,72.78
2024-04-17T02:07:02.921Z,73.95
2024-04-17T02:09:29.590Z,73.92
2024-04-17T02:11:56.260Z,74.11
2024-04-17T02:14:22.953Z,74.47
2024-04-17T02:16:50.997Z,74.79
2024-04-17T02:19:17.816Z,74.88
2024-04-17T02:21:44.504Z,75.13
2024-04-17T02:24:11.501Z,75.08
2024-04-17T02:26:38.277Z,74.93
2024-04-17T02:29:04.938Z,75.53
2024-04-17T02:31:31.624Z,75.20
2024-04-17T02:33:58.288Z,74.82
2024-04-17T02:36:24.956Z,74.35
2024-04-17T02:38:51.630Z,73.86
2024-04-17T02:41:18.384Z,73.68
2024-04-17T02:43:45.065Z,73.54
2024-04-17T02:46:11.797Z,73.38
2024-04-17T02:48:38.788Z,73.48
2024-04-17T02:51:05.733Z,73.54
2024-04-17T02:53:32.399Z,73.99
2024-04-17T02:56:00.783Z,73.57
2024-04-17T02:58:27.532Z,74.07
2024-04-17T03:00:54.787Z,73.61
2024-04-17T03:03:21.571Z,73.70
2024-04-17T03:05:48.277Z,72.89
2024-04-17T03:08:14.944Z,73.24
2024-04-17T03:10:41.636Z,72.98
2024-04-17T03:13:08.446Z,72.93
2024-04-17T03:15:36.396Z,73.09
2024-04-17T03:18:03.179Z,72.92
2024-04-17T03:20:32.434Z,72.49
2024-04-17T03:22:59.146Z,72.95
2024-04-17T03:25:25.970Z,74.46
2024-04-17T03:27:52.691Z,74.00
2024-04-17T03:30:19.410Z,74.06
2024-04-17T03:32:46.258Z,73.80
2024-04-17T03:35:13.117Z,73.28
2024-04-17T03:37:39.906Z,72.79
2024-04-17T03:40:07.206Z,73.13
2024-04-17T03:42:33.923Z,72.88
2024-04-17T03:45:00.658Z,72.46
2024-04-17T03:47:27.480Z,72.71
2024-04-17T03:49:55.128Z,72.50
2024-04-17T03:52:21.881Z,72.66
2024-04-17T03:54:48.576Z,73.00
2024-04-17T03:57:15.224Z,73.13
2024-04-17T03:59:41.892Z,72.97
2024-04-17T04:02:12.584Z,72.97
2024-04-17T04:04:40.445Z,72.88
2024-04-17T04:07:07.235Z,72.91
2024-04-17T04:09:33.929Z,72.43
2024-04-17T04:12:00.588Z,72.16
2024-04-17T04:14:27.705Z,72.57
2024-04-17T04:16:54.653Z,72.45
2024-04-17T04:19:21.610Z,72.49
2024-04-17T04:21:48.486Z,72.19
2024-04-17T04:24:15.172Z,72.17
2024-04-17T04:26:41.838Z,72.56
2024-04-17T04:29:08.802Z,72.37
2024-04-17T04:31:35.499Z,72.21
2024-04-17T04:34:02.173Z,71.82
2024-04-17T04:36:28.836Z,71.04
2024-04-17T04:38:55.528Z,71.63
2024-04-17T04:41:22.190Z,71.49
2024-04-17T04:43:48.967Z,71.19
2024-04-17T04:46:15.640Z,70.94
2024-04-17T04:48:42.364Z,71.70
2024-04-17T04:51:09.147Z,71.26
2024-04-17T04:53:35.797Z,71.01
2024-04-17T04:56:04.455Z,71.30
2024-04-17T04:58:32.209Z,71.48
2024-04-17T05:00:59.131Z,71.67
2024-04-17T05:03:25.870Z,71.10
2024-04-17T05:05:52.571Z,70.82
2024-04-17T05:08:19.670Z,70.64
2024-04-17T05:10:46.909Z,70.58
2024-04-17T05:13:13.550Z,70.22
2024-04-17T05:15:40.160Z,70.43
2024-04-17T05:18:07.134Z,70.37
2024-04-17T05:20:33.959Z,70.74
2024-04-17T05:23:00.684Z,70.03
2024-04-17T05:25:27.926Z,69.19
2024-04-17T05:27:54.663Z,68.62
2024-04-17T05:30:21.347Z,69.33
2024-04-17T05:32:48.495Z,67.05
2024-04-17T05:35:15.263Z,65.60
2024-04-17T05:37:42.041Z,64.91
2024-04-17T05:40:08.978Z,63.67
2024-04-17T05:42:35.683Z,60.80
2024-04-17T05:45:02.362Z,60.99
2024-04-17T05:47:29.123Z,60.93
2024-04-17T05:49:58.058Z,61.00
2024-04-17T05:52:27.162Z,60.36
2024-04-17T05:54:53.863Z,60.03
2024-04-17T05:57:20.586Z,60.43
2024-04-17T05:59:47.248Z,61.62
2024-04-17T06:02:14.196Z,62.55
2024-04-17T06:04:41.267Z,62.69
2024-04-17T06:07:07.937Z,63.67
2024-04-17T06:09:34.593Z,63.96
2024-04-17T06:12:01.260Z,64.33
2024-04-17T06:14:27.955Z,64.55
2024-04-17T06:16:54.667Z,65.00
2024-04-17T06:19:21.337Z,65.37
2024-04-17T06:21:48.364Z,65.64
2024-04-17T06:24:15.064Z,65.68
2024-04-17T06:26:41.758Z,66.65
2024-04-17T06:29:08.444Z,65.89
2024-04-17T06:31:35.183Z,67.34
2024-04-17T06:34:01.967Z,67.31
2024-04-17T06:36:28.655Z,67.10
2024-04-17T06:38:55.366Z,69.38
2024-04-17T06:41:22.077Z,67.52
2024-04-17T06:43:48.910Z,68.52
2024-04-17T06:46:15.638Z,69.41
2024-04-17T06:48:42.332Z,69.00
2024-04-17T06:51:09.107Z,68.63
2024-04-17T06:53:37.838Z,68.72
2024-04-17T06:56:06.040Z,68.31
2024-04-17T06:58:32.899Z,68.94
2024-04-17T07:00:59.856Z,68.90
2024-04-17T07:03:26.628Z,67.85
2024-04-17T07:06:05.180Z,68.12
2024-04-17T07:08:31.972Z,66.76
2024-04-17T07:10:58.671Z,68.25
2024-04-17T07:13:25.451Z,67.67
2024-04-17T07:15:53.900Z,66.64
2024-04-17T07:18:20.592Z,68.26
2024-04-17T07:20:47.298Z,67.79
2024-04-17T07:23:13.988Z,68.45
2024-04-17T07:25:40.703Z,67.97
2024-04-17T07:28:07.585Z,67.41
2024-04-17T07:30:39.358Z,68.03
2024-04-17T07:33:06.428Z,67.25
2024-04-17T07:35:33.147Z,67.66
2024-04-17T07:37:59.976Z,68.08
2024-04-17T07:40:26.776Z,66.24
2024-04-17T07:42:53.429Z,66.18
2024-04-17T07:45:20.114Z,65.76
2024-04-17T07:47:46.875Z,64.75
2024-04-17T07:50:13.586Z,64.33
2024-04-17T07:52:40.429Z,63.43
2024-04-17T07:55:07.357Z,62.84
2024-04-17T07:57:34.104Z,62.98
2024-04-17T08:00:01.429Z,62.25
2024-04-17T08:02:28.214Z,63.42
2024-04-17T08:04:54.976Z,62.50
2024-04-17T08:07:21.658Z,62.81
2024-04-17T08:09:48.313Z,62.29
2024-04-17T08:12:15.031Z,62.09
2024-04-17T08:14:41.830Z,62.32
2024-04-17T08:17:08.533Z,61.98
2024-04-17T08:19:37.907Z,61.19
2024-04-17T08:22:04.807Z,60.88
2024-04-17T08:24:31.475Z,59.98
2024-04-17T08:26:58.206Z,59.85
2024-04-17T08:29:24.927Z,59.36
2024-04-17T08:31:51.654Z,59.76
2024-04-17T08:34:18.307Z,58.46
2024-04-17T08:36:46.028Z,59.03
2024-04-17T08:39:12.679Z,59.01
2024-04-17T08:41:48.711Z,57.79
2024-04-17T08:44:30.478Z,58.17
2024-04-17T08:46:58.734Z,56.53
2024-04-17T08:49:27.284Z,57.09
2024-04-17T08:51:54.196Z,57.00
2024-04-17T08:54:22.938Z,56.28
2024-04-17T08:56:49.647Z,58.01
2024-04-17T08:59:16.396Z,57.69
2024-04-17T09:01:43.638Z,57.55
2024-04-17T09:04:11.972Z,58.74
2024-04-17T09:06:40.595Z,60.10
2024-04-17T09:09:11.126Z,58.24
2024-04-17T09:11:39.431Z,57.88
2024-04-17T09:14:06.230Z,59.47
2024-04-17T09:16:33.064Z,56.71
2024-04-17T09:19:00.332Z,56.13
2024-04-17T09:21:26.920Z,56.53
2024-04-17T09:23:55.943Z,56.31
2024-04-17T09:26:23.248Z,57.99
2024-04-17T09:28:50.702Z,56.76
2024-04-17T09:31:17.679Z,56.27
2024-04-17T09:33:46.048Z,55.92
2024-04-17T09:36:13.615Z,55.13
2024-04-17T09:38:41.098Z,54.42
2024-04-17T09:41:09.913Z,53.23
2024-04-17T09:43:46.640Z,55.35
2024-04-17T09:46:16.305Z,52.86
2024-04-17T09:48:50.934Z,52.04
2024-04-17T09:51:27.233Z,50.75
2024-04-17T09:54:02.867Z,52.87
2024-04-17T09:56:30.587Z,53.56
2024-04-17T09:59:06.837Z,50.19
2024-04-17T10:01:38.426Z,51.62
2024-04-17T10:04:10.116Z,51.61
2024-04-17T10:06:40.166Z,52.18
2024-04-17T10:09:08.958Z,53.53
2024-04-17T10:11:37.032Z,51.09
2024-04-17T10:14:05.060Z,50.77
2024-04-17T10:16:32.868Z,48.27
2024-04-17T10:19:00.547Z,50.99
2024-04-17T10:21:28.147Z,51.54
2024-04-17T10:24:08.323Z,52.18
2024-04-17T10:26:48.000Z,51.69
2024-04-17T10:29:15.658Z,53.20
2024-04-17T10:31:42.500Z,52.25
2024-04-17T10:34:09.209Z,51.42
2024-04-17T10:36:35.889Z,49.96
2024-04-17T10:39:03.585Z,49.80
2024-04-17T10:41:30.912Z,49.99
2024-04-17T10:43:57.751Z,49.40
2024-04-17T10:46:24.438Z,49.56
2024-04-17T10:48:52.109Z,50.01
2024-04-17T10:51:20.051Z,49.01
2024-04-17T10:53:48.660Z,49.73
2024-04-17T10:56:16.981Z,48.61
2024-04-17T10:58:44.140Z,49.01
2024-04-17T11:01:13.574Z,48.22
2024-04-17T11:03:40.986Z,48.93
2024-04-17T11:06:11.317Z,48.58
2024-04-17T11:08:54.614Z,46.95
2024-04-17T11:11:27.179Z,47.51
2024-04-17T11:13:54.345Z,47.36
2024-04-17T11:16:21.064Z,46.12
2024-04-17T11:18:47.990Z,47.46
2024-04-17T11:21:14.738Z,46.86
2024-04-17T11:23:45.952Z,47.42
2024-04-17T11:26:13.900Z,48.73
2024-04-17T11:28:51.897Z,49.99
2024-04-17T11:31:19.380Z,50.34
2024-04-17T11:33:46.998Z,51.62
2024-04-17T11:36:15.750Z,50.71
2024-04-17T11:38:46.592Z,52.14
2024-04-17T11:41:17.613Z,51.59
2024-04-17T11:43:46.461Z,51.21
2024-04-17T11:46:19.496Z,50.78
2024-04-17T11:48:46.617Z,51.20
2024-04-17T11:51:13.456Z,52.41
2024-04-17T11:53:40.143Z,50.73
2024-04-17T11:56:07.697Z,51.23
2024-04-17T11:58:34.459Z,50.79
2024-04-17T12:01:01.269Z,50.75
2024-04-17T12:05:59.066Z,50.14
2024-04-17T12:08:28.520Z,49.26
2024-04-17T12:10:55.217Z,49.27
2024-04-17T12:13:21.915Z,49.38
2024-04-17T12:15:48.608Z,50.21
2024-04-17T12:18:15.408Z,49.48
2024-04-17T12:20:42.083Z,50.26
2024-04-17T12:23:08.834Z,50.66
2024-04-17T12:25:54.128Z,49.95
2024-04-17T12:28:20.893Z,51.28
2024-04-17T12:30:47.805Z,50.15
2024-04-17T12:33:14.561Z,51.52
2024-04-17T12:35:42.066Z,52.62
2024-04-17T12:38:08.895Z,51.61
2024-04-17T12:40:35.667Z,50.32
2024-04-17T12:43:02.425Z,49.05
2024-04-17T12:45:29.118Z,49.68
2024-04-17T12:47:56.155Z,48.42
2024-04-17T12:50:22.976Z,50.68
2024-04-17T12:52:51.711Z,50.51
2024-04-17T12:55:18.499Z,52.13
2024-04-17T12:57:45.343Z,51.93
2024-04-17T13:00:12.641Z,51.31
2024-04-17T13:02:39.707Z,50.80
2024-04-17T13:05:06.412Z,51.28
2024-04-17T13:07:33.158Z,51.90
2024-04-17T13:09:59.936Z,51.87
2024-04-17T13:12:26.643Z,51.34
2024-04-17T13:14:53.888Z,51.72
2024-04-17T13:17:23.758Z,51.24
2024-04-17T13:19:50.517Z,52.19
2024-04-17T13:22:17.207Z,52.41
2024-04-17T13:24:44.047Z,52.07
2024-04-17T13:27:12.090Z,51.87
2024-04-17T13:29:38.743Z,52.13
2024-04-17T13:32:05.902Z,53.48
2024-04-17T13:34:32.818Z,53.66
2024-04-17T13:36:59.587Z,52.97
2024-04-17T13:39:26.292Z,54.02
2024-04-17T13:41:52.966Z,54.80
2024-04-17T13:44:21.911Z,52.58
2024-04-17T13:46:48.737Z,52.29
2024-04-17T13:49:15.474Z,52.45
2024-04-17T13:51:42.442Z,52.18
2024-04-17T13:54:09.095Z,51.03
2024-04-17T13:59:18.208Z,52.44
2024-04-17T14:01:44.954Z,51.48
2024-04-17T14:04:11.643Z,52.36
2024-04-17T14:06:38.470Z,51.32
2024-04-17T14:09:05.380Z,52.63
2024-04-17T14:11:32.361Z,51.45
2024-04-17T14:14:01.637Z,50.62
2024-04-17T14:16:29.430Z,52.75
2024-04-17T14:18:56.223Z,50.64
2024-04-17T14:21:23.441Z,51.36
2024-04-17T14:23:50.185Z,51.55
2024-04-17T14:26:22.184Z,51.39
2024-04-17T14:28:48.999Z,52.65
2024-04-17T14:31:15.835Z,51.70
2024-04-17T14:33:42.712Z,52.09
2024-04-17T14:36:09.823Z,52.84
2024-04-17T14:38:40.393Z,52.40
2024-04-17T14:41:09.055Z,52.13
2024-04-17T14:43:36.919Z,51.56
2024-04-17T14:46:05.043Z,50.43
2024-04-17T14:48:33.628Z,51.00
2024-04-17T14:51:02.553Z,50.76
2024-04-17T14:53:30.510Z,50.79
2024-04-17T14:56:05.031Z,51.58
2024-04-17T14:58:32.296Z,52.04
2024-04-17T15:01:00.099Z,52.02
2024-04-17T15:03:29.017Z,50.97
2024-04-17T15:06:07.455Z,50.12
2024-04-17T15:08:35.378Z,49.49
2024-04-17T15:11:10.193Z,51.09
2024-04-17T15:13:39.128Z,50.23
2024-04-17T15:16:06.934Z,50.45
2024-04-17T15:18:34.633Z,50.37
2024-04-17T15:21:07.324Z,49.64
2024-04-17T15:23:34.313Z,48.33
2024-04-17T15:26:11.479Z,48.18
2024-04-17T15:28:40.196Z,49.11
2024-04-17T15:33:58.255Z,51.47
2024-04-17T15:36:27.272Z,51.94
2024-04-17T15:38:54.280Z,51.20
2024-04-17T15:41:21.614Z,50.89
2024-04-17T15:43:48.742Z,52.24
2024-04-17T15:46:16.226Z,51.47
2024-04-17T15:48:44.266Z,51.13
2024-04-17T15:51:13.336Z,51.18
2024-04-17T15:53:44.666Z,51.35
2024-04-17T15:56:21.575Z,51.50
2024-04-17T15:58:49.844Z,52.14
2024-04-17T16:01:18.438Z,51.91
2024-04-17T16:03:50.720Z,51.87
2024-04-17T16:06:20.924Z,51.53
2024-04-17T16:08:48.747Z,50.63
2024-04-17T16:11:15.855Z,52.43
2024-04-17T16:13:43.800Z,51.56
2024-04-17T16:16:11.502Z,51.04
2024-04-17T16:18:39.999Z,50.89
2024-04-17T16:21:15.730Z,51.40
2024-04-17T16:23:43.208Z,51.50
2024-04-17T16:26:16.819Z,51.96
2024-04-17T16:28:50.137Z,53.06
2024-04-17T16:31:21.409Z,52.25
2024-04-17T16:33:52.541Z,53.48
2024-04-17T16:36:19.736Z,53.17
2024-04-17T16:38:47.184Z,52.28
2024-04-17T16:41:15.266Z,52.59
2024-04-17T16:43:42.307Z,52.20
2024-04-17T16:46:10.610Z,52.58
2024-04-17T16:48:40.008Z,52.53
2024-04-17T16:51:10.021Z,51.68
2024-04-17T16:53:39.152Z,50.82
2024-04-17T16:56:07.289Z,51.58
2024-04-17T16:58:39.897Z,51.52
2024-04-17T17:01:08.828Z,52.07
2024-04-17T17:03:36.577Z,51.51
2024-04-17T17:06:04.743Z,50.74
2024-04-17T17:08:31.862Z,50.90
2024-04-17T17:10:59.866Z,52.05
2024-04-17T17:13:29.919Z,51.67
2024-04-17T17:16:04.588Z,51.61
2024-04-17T17:18:32.842Z,53.07
2024-04-17T17:21:03.168Z,53.33
2024-04-17T17:23:30.728Z,54.11
2024-04-17T17:26:00.692Z,53.90
2024-04-17T17:28:27.868Z,56.78
2024-04-17T17:30:59.244Z,56.54
2024-04-17T17:33:29.838Z,54.84
2024-04-17T17:36:15.687Z,57.15
2024-04-17T17:38:44.051Z,57.46
2024-04-17T17:41:14.305Z,57.33
2024-04-17T17:43:44.174Z,57.37
2024-04-17T17:46:19.113Z,57.69
2024-04-17T17:48:48.854Z,58.06
2024-04-17T17:51:19.581Z,57.29
2024-04-17T17:53:46.922Z,58.32
2024-04-17T17:56:15.999Z,58.54
2024-04-17T17:58:48.550Z,58.17
2024-04-17T18:01:21.048Z,57.29
2024-04-17T18:03:51.256Z,57.98
2024-04-17T18:06:20.568Z,59.90
2024-04-17T18:08:47.558Z,58.80
2024-04-17T18:11:21.607Z,57.84
2024-04-17T18:13:49.028Z,58.02
2024-04-17T18:16:25.627Z,58.14
2024-04-17T18:19:00.422Z,58.23
2024-04-17T18:21:27.662Z,57.42
2024-04-17T18:23:54.460Z,58.06
2024-04-17T18:26:25.728Z,58.40
2024-04-17T18:28:54.741Z,58.29
2024-04-17T18:31:22.536Z,59.31
2024-04-17T18:33:52.944Z,58.42
2024-04-17T18:36:23.949Z,58.46
2024-04-17T18:38:52.373Z,58.18
2024-04-17T18:41:24.680Z,58.73
2024-04-17T18:44:05.533Z,58.64
2024-04-17T18:46:34.102Z,56.35
2024-04-17T18:49:01.777Z,58.23
2024-04-17T18:51:29.484Z,58.78
2024-04-17T18:53:56.242Z,58.27
2024-04-17T18:56:25.738Z,58.87
2024-04-17T18:58:52.547Z,59.20
2024-04-17T19:01:20.962Z,59.11
2024-04-17T19:03:48.761Z,58.76
2024-04-17T19:06:17.979Z,58.78
2024-04-17T19:08:44.979Z,60.12
2024-04-17T19:11:15.018Z,61.26
2024-04-17T19:13:42.538Z,58.73
2024-04-17T19:16:19.384Z,59.12
2024-04-17T19:18:48.967Z,60.88
2024-04-17T19:21:16.645Z,62.34
2024-04-17T19:23:44.487Z,61.47
2024-04-17T19:26:11.999Z,60.33
2024-04-17T19:28:38.666Z,61.57
2024-04-17T19:31:07.694Z,58.92
2024-04-17T19:33:41.740Z,60.11
2024-04-17T19:36:12.081Z,60.14
2024-04-17T19:38:44.313Z,62.52
2024-04-17T19:41:15.494Z,62.13
2024-04-17T19:43:42.682Z,60.20
2024-04-17T19:46:09.901Z,61.29
2024-04-17T19:48:38.569Z,60.31
2024-04-17T19:51:06.033Z,60.03
2024-04-17T19:53:33.222Z,60.57
2024-04-17T19:56:00.278Z,60.50
2024-04-17T19:58:27.134Z,59.97
2024-04-17T20:00:56.948Z,60.76
2024-04-17T20:03:23.947Z,60.70
2024-04-17T20:05:55.344Z,60.18
2024-04-17T20:08:22.703Z,62.22
2024-04-17T20:10:49.801Z,60.77
2024-04-17T20:13:18.820Z,63.50
2024-04-17T20:15:46.769Z,62.01
2024-04-17T20:18:16.649Z,61.44
2024-04-17T20:20:53.263Z,59.48
2024-04-17T20:23:20.250Z,61.13
2024-04-17T20:25:46.928Z,60.05
2024-04-17T20:28:14.764Z,59.58
2024-04-17T20:30:41.829Z,59.68
2024-04-17T20:33:09.548Z,60.50
2024-04-17T20:35:36.348Z,59.90
2024-04-17T20:38:03.005Z,61.02
2024-04-17T20:40:29.893Z,61.42
2024-04-17T20:42:56.612Z,61.71
2024-04-17T20:45:26.531Z,60.53
2024-04-17T20:47:53.336Z,59.54
2024-04-17T20:50:20.077Z,60.02
2024-04-17T20:52:46.740Z,60.07
2024-04-17T20:55:15.166Z,59.45
2024-04-17T20:57:41.903Z,60.04
2024-04-17T21:00:10.534Z,59.53
2024-04-17T21:02:39.470Z,58.60
2024-04-17T21:05:06.670Z,59.59
2024-04-17T21:07:34.123Z,59.53
2024-04-17T21:10:00.916Z,59.79
2024-04-17T21:12:27.705Z,59.29
2024-04-17T21:14:54.390Z,60.04
2024-04-17T21:17:21.117Z,59.88
2024-04-17T21:19:47.780Z,59.98
2024-04-17T21:22:14.451Z,59.99
2024-04-17T21:24:41.187Z,59.52
2024-04-17T21:27:07.956Z,60.14
2024-04-17T21:29:34.700Z,59.26
2024-04-17T21:32:05.923Z,59.02
2024-04-17T21:34:33.258Z,59.38
2024-04-17T21:37:03.334Z,59.22
2024-04-17T21:39:30.532Z,59.99
2024-04-17T21:41:57.552Z,60.08
2024-04-17T21:44:24.214Z,60.57
2024-04-17T21:46:53.960Z,61.38
2024-04-17T21:49:20.747Z,61.27
2024-04-17T21:51:47.559Z,61.35
2024-04-17T21:54:14.309Z,62.31
2024-04-17T21:56:43.724Z,61.93
2024-04-17T21:59:11.837Z,62.01
2024-04-17T22:01:38.531Z,62.13
2024-04-17T22:04:05.378Z,61.96
2024-04-17T22:06:32.098Z,62.06
2024-04-17T22:08:58.761Z,62.36
2024-04-17T22:11:25.503Z,62.21
2024-04-17T22:13:52.202Z,63.11
2024-04-17T22:16:18.884Z,62.81
2024-04-17T22:18:45.623Z,62.96
2024-04-17T22:21:12.362Z,63.49
2024-04-17T22:23:39.055Z,64.19
2024-04-17T22:26:05.839Z,64.48
2024-04-17T22:28:32.524Z,64.67
2024-04-17T22:30:59.198Z,64.20
2024-04-17T22:33:25.953Z,64.44
2024-04-17T22:35:52.648Z,63.98
2024-04-17T22:38:19.329Z,64.04
2024-04-17T22:40:45.994Z,64.28
2024-04-17T22:43:12.679Z,64.05
2024-04-17T22:45:39.387Z,64.23
2024-04-17T22:48:06.477Z,64.47
2024-04-17T22:50:33.143Z,64.29
2024-04-17T22:52:59.821Z,64.38
2024-04-17T22:55:26.472Z,64.09
2024-04-17T22:57:53.206Z,64.61
2024-04-17T23:00:21.413Z,64.55
2024-04-17T23:02:48.154Z,64.94
2024-04-17T23:05:15.437Z,65.36
2024-04-17T23:07:42.008Z,65.13
2024-04-17T23:10:08.618Z,65.45
2024-04-17T23:12:35.284Z,65.67
2024-04-17T23:15:02.110Z,66.60
2024-04-17T23:17:28.880Z,66.93
2024-04-17T23:19:55.530Z,68.21
2024-04-17T23:22:22.240Z,67.56
2024-04-17T23:24:48.917Z,68.43
2024-04-17T23:27:15.602Z,68.48
2024-04-17T23:29:42.406Z,69.28
2024-04-17T23:32:09.240Z,68.69
2024-04-17T23:34:35.945Z,69.49
2024-04-17T23:37:02.645Z,69.23
2024-04-17T23:39:29.616Z,68.85
2024-04-17T23:41:56.370Z,67.92
2024-04-17T23:44:24.667Z,67.27
2024-04-17T23:46:51.437Z,66.58
2024-04-17T23:49:21.136Z,66.55
2024-04-17T23:51:47.945Z,65.65
2024-04-17T23:54:14.694Z,65.27
2024-04-17T23:56:41.404Z,65.62
2024-04-17T23:59:08.082Z,64.79
